Time;durP1;ratioP1;P1;durP2;ratioP2;P2;SDS_P1;SDS_P2;PMS_P1;PMS_P2;Temp;Humidity;BMP_temperature;BMP_pressure;BME280_temperature;BME280_humidity;BME280_pressure;Samples;Min_cycle;Max_cycle;Signal;HPM_P1;HPM_P2
2023/03/01 00:01:51;;;;;;;5.20;2.20;;;;;;;;;;5079249;27;96559;-76
2023/03/01 00:04:18;;;;;;;4.72;2.22;;;;;;;;;;5060667;27;94454;-74
2023/03/01 00:06:45;;;;;;;5.10;2.15;;;;;;;;;;5078831;27;92542;-75
2023/03/01 00:09:13;;;;;;;4.22;2.00;;;;;;;;;;5061556;27;94565;-74
2023/03/01 00:11:39;;;;;;;4.30;2.20;;;;;;;;;;5081057;27;93137;-75
2023/03/01 00:14:06;;;;;;;4.30;1.90;;;;;;;;;;5058065;27;92262;-76
2023/03/01 00:16:34;;;;;;;4.45;2.03;;;;;;;;;;5059871;27;94634;-76
2023/03/01 00:19:01;;;;;;;11.18;2.40;;;;;;;;;;5061578;27;91739;-75
2023/03/01 00:21:28;;;;;;;15.07;2.10;;;;;;;;;;5083767;27;92772;-75
2023/03/01 00:23:54;;;;;;;10.20;2.70;;;;;;;;;;5080339;27;93263;-75
2023/03/01 00:26:22;;;;;;;10.27;2.65;;;;;;;;;;5078787;27;94565;-76
2023/03/01 00:28:48;;;;;;;22.27;2.97;;;;;;;;;;5080779;27;95118;-75
2023/03/01 00:31:17;;;;;;;6.65;2.53;;;;;;;;;;5062735;27;92567;-75
2023/03/01 00:33:43;;;;;;;7.63;2.65;;;;;;;;;;5061971;27;92346;-75
2023/03/01 00:36:12;;;;;;;12.18;2.70;;;;;;;;;;5079947;27;92450;-75
2023/03/01 00:38:39;;;;;;;8.85;3.28;;;;;;;;;;5079636;27;92714;-74
2023/03/01 00:41:09;;;;;;;7.18;2.67;;;;;;;;;;5083748;27;92718;-74
2023/03/01 00:43:37;;;;;;;8.15;2.88;;;;;;;;;;5062537;27;94862;-76
2023/03/01 00:46:05;;;;;;;7.15;2.53;;;;;;;;;;5079974;27;92491;-75
2023/03/01 00:48:32;;;;;;;6.28;2.65;;;;;;;;;;5061434;27;92831;-76
2023/03/01 00:51:25;;;;;;;8.25;3.10;;;;;;;;;;5077770;27;95558;-75
2023/03/01 00:53:53;;;;;;;11.85;3.30;;;;;;;;;;5075874;27;93863;-75
2023/03/01 00:56:19;;;;;;;6.80;3.15;;;;;;;;;;5080548;27;92286;-75
2023/03/01 00:58:46;;;;;;;6.35;3.03;;;;;;;;;;5058317;27;99552;-76
2023/03/01 01:01:17;;;;;;;6.72;3.13;;;;;;;;;;5060998;27;92670;-75
2023/03/01 01:03:44;;;;;;;7.63;3.00;;;;;;;;;;5072082;27;92687;-76
2023/03/01 01:06:14;;;;;;;7.57;3.40;;;;;;;;;;5061384;27;92205;-75
2023/03/01 01:08:41;;;;;;;15.20;3.28;;;;;;;;;;5080277;27;92655;-75
2023/03/01 01:11:08;;;;;;;9.20;3.33;;;;;;;;;;5082606;27;92870;-76
2023/03/01 01:13:35;;;;;;;;;;;;;;;;;;5065791;27;92326;-76
2023/03/01 01:16:02;;;;;;;6.80;3.00;;;;;;;;;;5078770;27;114047;-77
2023/03/01 01:18:28;;;;;;;7.80;3.17;;;;;;;;;;5060834;27;95109;-76
2023/03/01 01:20:55;;;;;;;8.13;2.92;;;;;;;;;;5083421;27;92315;-76
2023/03/01 01:23:21;;;;;;;7.60;3.20;;;;;;;;;;5048368;27;94869;-76
2023/03/01 01:25:48;;;;;;;7.15;3.10;;;;;;;;;;5068136;27;93009;-75
2023/03/01 01:28:14;;;;;;;6.38;3.08;;;;;;;;;;5064880;27;95353;-75
2023/03/01 01:30:42;;;;;;;8.70;3.47;;;;;;;;;;5064355;27;93685;-75
2023/03/01 01:33:08;;;;;;;8.55;3.67;;;;;;;;;;5065407;27;91253;-75
2023/03/01 01:35:34;;;;;;;8.52;3.70;;;;;;;;;;5064118;27;91988;-75
2023/03/01 01:38:01;;;;;;;7.45;3.53;;;;;;;;;;5063702;27;94815;-74
2023/03/01 01:40:27;;;;;;;7.55;3.70;;;;;;;;;;5080967;27;94885;-76
2023/03/01 01:42:54;;;;;;;7.88;3.35;;;;;;;;;;5064327;27;95120;-74
2023/03/01 01:45:26;;;;;;;8.27;3.63;;;;;;;;;;5061267;27;93044;-75
2023/03/01 01:47:54;;;;;;;7.07;3.35;;;;;;;;;;5086354;27;92330;-75
2023/03/01 01:50:21;;;;;;;6.47;3.50;;;;;;;;;;5064169;27;93229;-75
2023/03/01 01:52:48;;;;;;;7.25;3.80;;;;;;;;;;5064673;27;93823;-74
2023/03/01 01:55:15;;;;;;;;;;;;;;;;;;5083329;27;92839;-76
2023/03/01 01:57:45;;;;;;;7.20;3.60;;;;;;;;;;5084524;27;112784;-75
2023/03/01 02:00:14;;;;;;;7.07;3.60;;;;;;;;;;5045656;27;92106;-75
2023/03/01 02:02:42;;;;;;;13.05;4.05;;;;;;;;;;5064075;27;92601;-76
2023/03/01 02:05:14;;;;;;;10.73;3.50;;;;;;;;;;5062602;27;94905;-76
2023/03/01 02:07:42;;;;;;;7.70;3.75;;;;;;;;;;5083474;27;92145;-75
2023/03/01 02:10:09;;;;;;;9.40;3.50;;;;;;;;;;5085599;27;92409;-75
2023/03/01 02:12:35;;;;;;;8.25;3.45;;;;;;;;;;5077469;27;93152;-75
2023/03/01 02:15:02;;;;;;;7.57;3.40;;;;;;;;;;5082960;27;92814;-76
2023/03/01 02:17:30;;;;;;;7.32;3.50;;;;;;;;;;5047365;27;92814;-76
2023/03/01 02:20:15;;;;;;;6.60;3.30;;;;;;;;;;5063748;27;93313;-75
2023/03/01 02:22:43;;;;;;;8.25;3.05;;;;;;;;;;5064229;27;92371;-75
2023/03/01 02:25:20;;;;;;;6.55;3.42;;;;;;;;;;5081859;27;93804;-76
2023/03/01 02:27:49;;;;;;;10.07;3.22;;;;;;;;;;5082969;27;92389;-75
2023/03/01 02:30:15;;;;;;;7.85;3.53;;;;;;;;;;5080385;27;94508;-75
2023/03/01 02:32:43;;;;;;;6.93;3.40;;;;;;;;;;5084878;27;92685;-75
2023/03/01 02:35:11;;;;;;;7.00;3.25;;;;;;;;;;5082236;27;92735;-74
2023/03/01 02:37:38;;;;;;;7.50;3.28;;;;;;;;;;5063896;27;95832;-75
2023/03/01 02:40:11;;;;;;;8.60;3.40;;;;;;;;;;5079758;27;92433;-74
2023/03/01 02:42:44;;;;;;;7.85;3.55;;;;;;;;;;5054522;27;94379;-74
2023/03/01 02:45:10;;;;;;;9.82;3.65;;;;;;;;;;5081165;27;93361;-74
2023/03/01 02:47:37;;;;;;;7.60;3.65;;;;;;;;;;5064298;27;91775;-74
2023/03/01 02:50:10;;;;;;;7.97;3.47;;;;;;;;;;5063697;27;92267;-74
2023/03/01 02:52:45;;;;;;;7.07;3.70;;;;;;;;;;5084516;27;93717;-73
2023/03/01 02:55:13;;;;;;;7.35;3.95;;;;;;;;;;5061499;27;94900;-74
2023/03/01 02:57:41;;;;;;;8.05;4.07;;;;;;;;;;5063206;27;93119;-75
2023/03/01 03:00:19;;;;;;;7.88;3.63;;;;;;;;;;5050931;27;92091;-75
2023/03/01 03:02:47;;;;;;;9.95;3.72;;;;;;;;;;5082120;27;97631;-75
2023/03/01 03:05:18;;;;;;;7.47;3.67;;;;;;;;;;5081583;27;93500;-75
2023/03/01 03:07:45;;;;;;;7.13;3.50;;;;;;;;;;5081707;27;92170;-75
2023/03/01 03:10:19;;;;;;;8.48;3.83;;;;;;;;;;5058889;27;92917;-75
2023/03/01 03:12:50;;;;;;;6.28;3.35;;;;;;;;;;5073136;27;96933;-75
2023/03/01 03:15:17;;;;;;;13.07;4.15;;;;;;;;;;5084771;27;92419;-75
2023/03/01 03:17:44;;;;;;;10.60;3.83;;;;;;;;;;5062821;27;94909;-75
2023/03/01 03:20:18;;;;;;;9.73;4.03;;;;;;;;;;5079756;27;94960;-74
2023/03/01 03:22:45;;;;;;;;;;;;;;;;;;5081071;27;94832;-75
2023/03/01 03:25:12;;;;;;;8.50;3.55;;;;;;;;;;5047013;27;118909;-75
2023/03/01 03:27:39;;;;;;;12.45;3.58;;;;;;;;;;5063816;27;92497;-76
2023/03/01 03:30:09;;;;;;;7.50;3.70;;;;;;;;;;5083583;27;94395;-75
2023/03/01 03:32:36;;;;;;;7.95;3.30;;;;;;;;;;5085064;27;92378;-77
2023/03/01 03:35:09;;;;;;;7.25;3.58;;;;;;;;;;5062427;27;92780;-77
2023/03/01 03:40:21;;;;;;;13.95;3.67;;;;;;;;;;5081182;27;91956;-74
2023/03/01 03:42:48;;;;;;;8.05;3.58;;;;;;;;;;5081481;27;92293;-74
2023/03/01 03:45:15;;;;;;;7.22;3.60;;;;;;;;;;5078851;27;94634;-76
2023/03/01 03:47:41;;;;;;;7.43;3.35;;;;;;;;;;5081719;27;92057;-74
2023/03/01 03:50:09;;;;;;;7.93;3.42;;;;;;;;;;5062725;27;92707;-76
2023/03/01 03:52:35;;;;;;;8.98;3.60;;;;;;;;;;5049972;27;94382;-75
2023/03/01 03:55:01;;;;;;;7.20;3.60;;;;;;;;;;5081499;27;92129;-75
2023/03/01 03:57:28;;;;;;;8.25;3.33;;;;;;;;;;5081619;27;93031;-75
2023/03/01 03:59:54;;;;;;;7.20;3.67;;;;;;;;;;5065405;27;94939;-75
2023/03/01 04:02:21;;;;;;;7.50;3.63;;;;;;;;;;5063018;27;95428;-76
2023/03/01 04:04:51;;;;;;;10.02;3.67;;;;;;;;;;5080896;27;93469;-76
2023/03/01 04:07:17;;;;;;;7.53;3.85;;;;;;;;;;5081020;27;92119;-76
2023/03/01 04:09:44;;;;;;;7.75;3.67;;;;;;;;;;5079366;27;94711;-76
2023/03/01 04:12:10;;;;;;;7.68;3.45;;;;;;;;;;5089752;27;92680;-75
2023/03/01 04:14:37;;;;;;;7.35;3.63;;;;;;;;;;5062213;27;92043;-74
2023/03/01 04:17:05;;;;;;;8.30;3.65;;;;;;;;;;5080726;27;92105;-75
2023/03/01 04:19:35;;;;;;;7.43;3.78;;;;;;;;;;5062166;27;92475;-77
2023/03/01 04:22:09;;;;;;;6.50;3.40;;;;;;;;;;5065523;27;92549;-76
2023/03/01 04:24:35;;;;;;;10.68;3.80;;;;;;;;;;5079473;27;92802;-76
2023/03/01 04:27:02;;;;;;;9.13;3.55;;;;;;;;;;5081463;27;91283;-76
2023/03/01 04:29:28;;;;;;;8.93;4.00;;;;;;;;;;5080587;27;92286;-76
2023/03/01 04:31:55;;;;;;;6.72;3.50;;;;;;;;;;5068653;27;94772;-74
2023/03/01 04:34:21;;;;;;;7.80;3.47;;;;;;;;;;5078376;27;94746;-76
2023/03/01 04:36:48;;;;;;;8.43;3.60;;;;;;;;;;5080035;27;95225;-75
2023/03/01 04:39:14;;;;;;;8.07;3.80;;;;;;;;;;5080199;27;93354;-75
2023/03/01 04:41:42;;;;;;;7.85;3.88;;;;;;;;;;5080852;27;92586;-75
2023/03/01 04:44:09;;;;;;;7.55;3.70;;;;;;;;;;5065045;27;92554;-75
2023/03/01 04:46:36;;;;;;;7.88;3.80;;;;;;;;;;5058274;27;92229;-75
2023/03/01 04:49:02;;;;;;;11.57;3.95;;;;;;;;;;5049602;27;94714;-74
2023/03/01 04:51:29;;;;;;;8.30;3.60;;;;;;;;;;5080653;27;92089;-74
2023/03/01 04:53:55;;;;;;;7.82;3.33;;;;;;;;;;5061791;27;92256;-75
2023/03/01 04:56:22;;;;;;;6.90;3.50;;;;;;;;;;5088401;27;92137;-75
2023/03/01 04:58:49;;;;;;;7.40;3.33;;;;;;;;;;5061976;27;95118;-75
2023/03/01 05:01:17;;;;;;;8.55;4.15;;;;;;;;;;5073682;27;92345;-75
2023/03/01 05:03:45;;;;;;;7.05;3.42;;;;;;;;;;5061273;27;94869;-74
2023/03/01 05:06:11;;;;;;;8.10;3.80;;;;;;;;;;5080126;27;92203;-76
2023/03/01 05:08:38;;;;;;;8.02;3.80;;;;;;;;;;5079383;27;92335;-76
2023/03/01 05:11:05;;;;;;;8.63;4.00;;;;;;;;;;5063270;27;92699;-78
2023/03/01 05:13:32;;;;;;;7.97;3.97;;;;;;;;;;5087151;27;92397;-75
2023/03/01 05:15:59;;;;;;;9.43;3.70;;;;;;;;;;5061965;27;91781;-75
2023/03/01 05:18:26;;;;;;;;;;;;;;;;;;5080027;27;92785;-76
2023/03/01 05:20:55;;;;;;;7.30;3.60;;;;;;;;;;5062310;27;97032;-75
2023/03/01 05:23:22;;;;;;;7.97;3.42;;;;;;;;;;5078534;27;94927;-75
2023/03/01 05:25:52;;;;;;;7.97;3.45;;;;;;;;;;5082416;27;93133;-74
2023/03/01 05:28:19;;;;;;;8.65;3.55;;;;;;;;;;5061700;27;92988;-75
2023/03/01 05:30:46;;;;;;;8.75;4.07;;;;;;;;;;5081483;27;92730;-74
2023/03/01 05:33:15;;;;;;;8.75;4.20;;;;;;;;;;5079983;27;92236;-75
2023/03/01 05:35:42;;;;;;;7.63;3.80;;;;;;;;;;5079375;27;92490;-76
2023/03/01 05:38:12;;;;;;;10.27;4.00;;;;;;;;;;5079113;27;93004;-76
2023/03/01 05:40:40;;;;;;;8.68;4.35;;;;;;;;;;5078346;27;91275;-76
2023/03/01 05:43:07;;;;;;;8.00;4.05;;;;;;;;;;5079752;27;92587;-76
2023/03/01 05:45:35;;;;;;;8.20;4.13;;;;;;;;;;5060390;27;93609;-76
2023/03/01 05:48:02;;;;;;;8.13;3.70;;;;;;;;;;5081368;27;94536;-76
2023/03/01 05:50:29;;;;;;;8.98;3.95;;;;;;;;;;5078505;27;92143;-76
2023/03/01 05:52:57;;;;;;;8.20;4.20;;;;;;;;;;5080193;27;92478;-76
2023/03/01 05:55:24;;;;;;;8.10;4.30;;;;;;;;;;5060616;27;94713;-77
2023/03/01 05:57:51;;;;;;;8.77;4.57;;;;;;;;;;5052610;27;92455;-76
2023/03/01 06:00:19;;;;;;;8.35;4.18;;;;;;;;;;5083150;27;92564;-76
2023/03/01 06:02:45;;;;;;;;;;;;;;;;;;5064517;27;95308;-76
2023/03/01 06:05:12;;;;;;;8.63;4.45;;;;;;;;;;5066100;27;99554;-75
2023/03/01 06:07:39;;;;;;;8.48;4.50;;;;;;;;;;5065070;27;92125;-75
2023/03/01 06:10:06;;;;;;;7.75;3.90;;;;;;;;;;5085889;27;92924;-75
2023/03/01 06:12:33;;;;;;;9.30;4.45;;;;;;;;;;5071146;27;95189;-75
2023/03/01 06:15:00;;;;;;;9.27;4.25;;;;;;;;;;5081724;27;94887;-75
2023/03/01 06:17:31;;;;;;;7.70;3.88;;;;;;;;;;5060619;27;94881;-76
2023/03/01 06:19:57;;;;;;;9.07;4.40;;;;;;;;;;5072070;27;92226;-76
2023/03/01 06:22:24;;;;;;;8.10;4.40;;;;;;;;;;5082062;27;92406;-75
2023/03/01 06:24:51;;;;;;;9.20;4.30;;;;;;;;;;5046815;27;92781;-75
2023/03/01 06:27:17;;;;;;;10.50;4.00;;;;;;;;;;5058519;27;92236;-75
2023/03/01 06:29:44;;;;;;;8.18;4.03;;;;;;;;;;5082614;27;92910;-75
2023/03/01 06:32:10;;;;;;;9.68;4.25;;;;;;;;;;5091354;27;92943;-75
2023/03/01 06:34:37;;;;;;;10.27;4.15;;;;;;;;;;5081299;27;92483;-75
2023/03/01 06:37:04;;;;;;;8.20;4.20;;;;;;;;;;5079290;27;95614;-76
2023/03/01 06:39:32;;;;;;;8.75;4.05;;;;;;;;;;5081707;27;92020;-76
2023/03/01 06:41:58;;;;;;;9.00;4.75;;;;;;;;;;5081897;27;92331;-76
2023/03/01 06:44:25;;;;;;;9.15;4.20;;;;;;;;;;5080753;27;92683;-76
2023/03/01 06:46:51;;;;;;;8.05;4.20;;;;;;;;;;5063266;27;92467;-76
2023/03/01 06:49:19;;;;;;;14.05;4.43;;;;;;;;;;5081629;27;93415;-75
2023/03/01 06:51:46;;;;;;;;;;;;;;;;;;5081919;27;92570;-75
2023/03/01 06:54:12;;;;;;;9.25;4.38;;;;;;;;;;5084493;27;91305;-76
2023/03/01 06:56:39;;;;;;;9.93;3.60;;;;;;;;;;5081261;27;92600;-75
2023/03/01 06:59:05;;;;;;;7.85;4.22;;;;;;;;;;5062121;27;92660;-75
2023/03/01 07:01:32;;;;;;;9.73;3.80;;;;;;;;;;5079786;27;96441;-76
2023/03/01 07:03:58;;;;;;;12.55;4.25;;;;;;;;;;5080240;27;92667;-75
2023/03/01 07:06:25;;;;;;;7.18;3.45;;;;;;;;;;5079632;27;92480;-76
2023/03/01 07:08:51;;;;;;;8.95;3.45;;;;;;;;;;5078242;27;92890;-75
2023/03/01 07:11:18;;;;;;;6.93;3.33;;;;;;;;;;5081208;27;92756;-75
2023/03/01 07:13:44;;;;;;;6.07;3.10;;;;;;;;;;5083952;27;92343;-75
2023/03/01 07:16:10;;;;;;;5.88;3.08;;;;;;;;;;5080593;27;93938;-76
2023/03/01 07:18:37;;;;;;;6.47;2.88;;;;;;;;;;5080396;27;91701;-75
2023/03/01 07:21:13;;;;;;;8.23;3.10;;;;;;;;;;5062522;27;93219;-75
2023/03/01 07:23:40;;;;;;;6.15;3.05;;;;;;;;;;5080997;27;92804;-75
2023/03/01 07:26:07;;;;;;;8.82;3.13;;;;;;;;;;5079096;27;94679;-76
2023/03/01 07:28:38;;;;;;;8.45;3.20;;;;;;;;;;5079958;27;95833;-75
2023/03/01 07:31:05;;;;;;;7.57;3.03;;;;;;;;;;5077522;27;92698;-75
2023/03/01 07:33:32;;;;;;;10.75;2.95;;;;;;;;;;5062855;27;92126;-75
2023/03/01 07:35:59;;;;;;;13.25;3.28;;;;;;;;;;5083691;27;93635;-76
2023/03/01 07:38:26;;;;;;;7.93;3.10;;;;;;;;;;5079740;27;94977;-76
2023/03/01 07:40:53;;;;;;;9.30;3.20;;;;;;;;;;5080336;27;92484;-76
2023/03/01 07:43:20;;;;;;;10.63;3.17;;;;;;;;;;5081085;27;93819;-77
2023/03/01 07:45:46;;;;;;;;;;;;;;;;;;5044752;27;92216;-76
2023/03/01 07:48:13;;;;;;;17.63;3.03;;;;;;;;;;5028231;27;107608;-75
2023/03/01 07:50:39;;;;;;;7.15;2.83;;;;;;;;;;5057009;27;97864;-74
2023/03/01 07:53:06;;;;;;;11.00;2.90;;;;;;;;;;5080352;27;92320;-75
2023/03/01 07:55:32;;;;;;;7.07;2.85;;;;;;;;;;5080354;27;92292;-75
2023/03/01 07:57:58;;;;;;;10.68;3.13;;;;;;;;;;5083998;27;92779;-75
2023/03/01 08:00:25;;;;;;;7.82;3.00;;;;;;;;;;5078686;27;92501;-73
2023/03/01 08:02:51;;;;;;;7.80;3.10;;;;;;;;;;5080247;27;92832;-73
2023/03/01 08:05:18;;;;;;;6.05;2.90;;;;;;;;;;5078869;27;92672;-73
2023/03/01 08:07:44;;;;;;;6.50;2.63;;;;;;;;;;5080824;27;92749;-73
2023/03/01 08:10:11;;;;;;;6.82;2.60;;;;;;;;;;5079270;27;93751;-75
2023/03/01 08:12:37;;;;;;;7.93;2.63;;;;;;;;;;5060477;27;92120;-72
2023/03/01 08:15:04;;;;;;;5.38;2.55;;;;;;;;;;5077030;27;94559;-73
2023/03/01 08:17:30;;;;;;;4.90;2.03;;;;;;;;;;5079956;27;93035;-73
2023/03/01 08:19:57;;;;;;;6.15;2.58;;;;;;;;;;5082550;27;92018;-73
2023/03/01 08:22:23;;;;;;;5.80;2.28;;;;;;;;;;5045241;27;94438;-75
2023/03/01 08:24:51;;;;;;;5.68;2.40;;;;;;;;;;5077904;27;92334;-74
2023/03/01 08:27:17;;;;;;;6.22;2.35;;;;;;;;;;5079389;27;92920;-72
2023/03/01 08:29:44;;;;;;;6.38;2.50;;;;;;;;;;5078188;27;92657;-72
2023/03/01 08:32:10;;;;;;;4.32;2.00;;;;;;;;;;5088715;27;91657;-73
2023/03/01 08:34:37;;;;;;;5.38;2.30;;;;;;;;;;5060640;27;92424;-74
2023/03/01 08:37:03;;;;;;;4.93;2.30;;;;;;;;;;5059756;27;93513;-74
2023/03/01 08:39:30;;;;;;;4.82;2.50;;;;;;;;;;5077881;27;94604;-73
2023/03/01 08:41:56;;;;;;;5.22;2.13;;;;;;;;;;5082721;27;96773;-72
2023/03/01 08:44:24;;;;;;;4.85;2.15;;;;;;;;;;5079205;27;92240;-73
2023/03/01 08:46:52;;;;;;;12.40;2.40;;;;;;;;;;5060269;27;92537;-75
2023/03/01 08:49:19;;;;;;;6.45;2.30;;;;;;;;;;5078795;27;93066;-72
2023/03/01 08:51:46;;;;;;;29.65;3.20;;;;;;;;;;5079205;27;93170;-73
2023/03/01 08:54:17;;;;;;;7.30;2.42;;;;;;;;;;5079307;27;92547;-74
2023/03/01 08:56:44;;;;;;;6.85;2.40;;;;;;;;;;5086654;27;93249;-73
2023/03/01 08:59:11;;;;;;;6.35;2.20;;;;;;;;;;5079352;27;92232;-74
2023/03/01 09:01:38;;;;;;;;;;;;;;;;;;5082389;27;93249;-72
2023/03/01 09:04:04;;;;;;;5.50;2.03;;;;;;;;;;5078009;27;100875;-74
2023/03/01 09:06:33;;;;;;;4.47;2.00;;;;;;;;;;5076530;27;94828;-73
2023/03/01 09:09:00;;;;;;;7.90;2.40;;;;;;;;;;5078339;27;93109;-74
2023/03/01 09:11:26;;;;;;;;;;;;;;;;;;5081252;27;92353;-75
2023/03/01 09:13:53;;;;;;;4.43;1.80;;;;;;;;;;5058514;27;117698;-74
2023/03/01 09:16:20;;;;;;;6.13;2.03;;;;;;;;;;5078678;27;93546;-74
2023/03/01 09:18:51;;;;;;;4.13;1.83;;;;;;;;;;5042182;27;92928;-74
2023/03/01 09:21:18;;;;;;;5.57;2.08;;;;;;;;;;5061373;27;92267;-74
2023/03/01 09:24:02;;;;;;;;;;;;;;;;;;5082634;27;92973;-74
2023/03/01 09:26:29;;;;;;;5.00;2.10;;;;;;;;;;5078432;27;122572;-74
2023/03/01 09:28:56;;;;;;;;;;;;;;;;;;5078169;27;95573;-74
2023/03/01 09:31:23;;;;;;;4.57;2.00;;;;;;;;;;5062869;27;95612;-74
2023/03/01 09:33:52;;;;;;;3.28;1.63;;;;;;;;;;5082078;27;92285;-74
2023/03/01 09:36:20;;;;;;;6.18;2.10;;;;;;;;;;5080060;27;92754;-74
2023/03/01 09:38:47;;;;;;;4.72;1.80;;;;;;;;;;5080573;27;92491;-74
2023/03/01 09:41:17;;;;;;;3.38;1.63;;;;;;;;;;5045571;27;94056;-75
2023/03/01 09:43:53;;;;;;;3.80;1.75;;;;;;;;;;5062261;27;94639;-77
2023/03/01 09:46:23;;;;;;;4.80;2.08;;;;;;;;;;5066082;27;91366;-75
2023/03/01 09:48:49;;;;;;;5.05;2.22;;;;;;;;;;5045889;27;94423;-74
2023/03/01 09:51:33;;;;;;;3.53;1.75;;;;;;;;;;5081823;27;92450;-74
2023/03/01 09:54:04;;;;;;;4.03;1.80;;;;;;;;;;5061187;27;94630;-74
2023/03/01 09:56:33;;;;;;;4.63;1.95;;;;;;;;;;5079804;27;93509;-73
2023/03/01 09:59:00;;;;;;;4.22;1.80;;;;;;;;;;5080988;27;92509;-73
2023/03/01 10:01:43;;;;;;;3.92;2.00;;;;;;;;;;5081908;27;92860;-74
2023/03/01 10:04:10;;;;;;;3.40;1.65;;;;;;;;;;5081441;27;93304;-73
2023/03/01 10:06:37;;;;;;;2.50;1.42;;;;;;;;;;5081207;27;92239;-74
2023/03/01 10:09:10;;;;;;;4.47;1.60;;;;;;;;;;5081022;27;92432;-74
2023/03/01 10:11:38;;;;;;;2.33;1.38;;;;;;;;;;5082275;27;91731;-75
2023/03/01 10:14:12;;;;;;;3.65;1.40;;;;;;;;;;5068455;27;94052;-74
2023/03/01 10:16:43;;;;;;;3.40;1.58;;;;;;;;;;5064927;27;93236;-73
2023/03/01 10:19:24;;;;;;;4.05;1.58;;;;;;;;;;5076891;27;94463;-74
2023/03/01 10:21:51;;;;;;;2.28;1.30;;;;;;;;;;5040887;27;96798;-75
2023/03/01 10:24:20;;;;;;;3.78;1.60;;;;;;;;;;5077694;27;92449;-76
2023/03/01 10:26:55;;;;;;;3.35;1.30;;;;;;;;;;5080679;27;92444;-75
2023/03/01 10:29:24;;;;;;;3.50;1.50;;;;;;;;;;5081758;27;94202;-75
2023/03/01 10:31:51;;;;;;;3.67;1.58;;;;;;;;;;5084871;27;92799;-75
2023/03/01 10:34:27;;;;;;;3.83;1.48;;;;;;;;;;5081163;27;92434;-76
2023/03/01 10:36:56;;;;;;;3.85;1.55;;;;;;;;;;5080976;27;97186;-75
2023/03/01 10:39:24;;;;;;;1.95;1.08;;;;;;;;;;5070084;27;92140;-75
2023/03/01 10:42:03;;;;;;;2.20;1.30;;;;;;;;;;5080015;27;92225;-76
2023/03/01 10:44:41;;;;;;;5.15;1.58;;;;;;;;;;5078571;27;95121;-76
2023/03/01 10:47:13;;;;;;;3.42;1.40;;;;;;;;;;5063056;27;92412;-75
2023/03/01 10:49:50;;;;;;;3.13;1.25;;;;;;;;;;5081651;27;92332;-75
2023/03/01 10:52:19;;;;;;;3.50;1.40;;;;;;;;;;5081209;27;92971;-76
2023/03/01 10:55:02;;;;;;;2.13;1.15;;;;;;;;;;5083564;27;92613;-74
2023/03/01 10:57:29;;;;;;;2.88;1.23;;;;;;;;;;5091795;27;92674;-75
2023/03/01 11:00:17;;;;;;;3.65;1.40;;;;;;;;;;5081116;27;92206;-74
2023/03/01 11:02:46;;;;;;;3.38;1.40;;;;;;;;;;5063151;27;92940;-75
2023/03/01 11:05:12;;;;;;;2.58;1.38;;;;;;;;;;5080497;27;93354;-76
2023/03/01 11:07:48;;;;;;;2.10;1.10;;;;;;;;;;5081417;27;92060;-75
2023/03/01 11:10:19;;;;;;;2.30;1.35;;;;;;;;;;5078949;27;94555;-75
2023/03/01 11:12:46;;;;;;;3.08;1.25;;;;;;;;;;5080399;27;98356;-75
2023/03/01 11:15:20;;;;;;;3.97;1.30;;;;;;;;;;5083726;27;92809;-76
2023/03/01 11:17:47;;;;;;;3.97;1.50;;;;;;;;;;5080181;27;93030;-76
2023/03/01 11:20:32;;;;;;;2.47;1.20;;;;;;;;;;5078538;27;92121;-77
2023/03/01 11:23:02;;;;;;;4.70;1.30;;;;;;;;;;5080684;27;92494;-76
2023/03/01 11:25:31;;;;;;;3.35;1.27;;;;;;;;;;5062137;27;92748;-76
2023/03/01 11:27:59;;;;;;;2.25;1.30;;;;;;;;;;5062421;27;91612;-77
2023/03/01 11:30:29;;;;;;;3.42;1.35;;;;;;;;;;5078882;27;92281;-77
2023/03/01 11:33:07;;;;;;;3.28;1.20;;;;;;;;;;5078966;27;92873;-76
2023/03/01 11:35:37;;;;;;;2.90;1.15;;;;;;;;;;5077601;27;94821;-76
2023/03/01 11:38:16;;;;;;;2.95;1.30;;;;;;;;;;5058903;27;97269;-76
2023/03/01 11:40:54;;;;;;;2.47;1.15;;;;;;;;;;5079678;27;92281;-75
2023/03/01 11:43:27;;;;;;;3.15;1.20;;;;;;;;;;5080462;27;94047;-75
2023/03/01 11:46:17;;;;;;;3.53;1.20;;;;;;;;;;5080030;27;93245;-75
2023/03/01 11:48:52;;;;;;;5.30;1.40;;;;;;;;;;5022794;27;92220;-74
2023/03/01 11:51:23;;;;;;;3.03;1.25;;;;;;;;;;5079807;27;92815;-74
2023/03/01 11:53:50;;;;;;;3.78;1.33;;;;;;;;;;5078501;27;92985;-75
2023/03/01 11:56:22;;;;;;;2.25;1.30;;;;;;;;;;5079338;27;92532;-76
2023/03/01 11:58:55;;;;;;;4.03;1.30;;;;;;;;;;5080048;27;96492;-76
2023/03/01 12:01:42;;;;;;;3.38;1.27;;;;;;;;;;5078720;27;97109;-75
2023/03/01 12:04:26;;;;;;;3.65;1.27;;;;;;;;;;5059902;27;96556;-74
2023/03/01 12:07:00;;;;;;;2.35;1.25;;;;;;;;;;5060815;27;99185;-76
2023/03/01 12:09:26;;;;;;;;;;;;;;;;;;5080432;27;92456;-77
2023/03/01 12:11:59;;;;;;;6.85;1.30;;;;;;;;;;5082822;27;107071;-76
2023/03/01 12:14:37;;;;;;;6.32;1.50;;;;;;;;;;5059636;27;94874;-76
2023/03/01 12:17:10;;;;;;;6.30;1.55;;;;;;;;;;5057274;27;92392;-76
2023/03/01 12:19:42;;;;;;;3.63;1.40;;;;;;;;;;5080428;27;92451;-76
2023/03/01 12:22:16;;;;;;;10.98;1.63;;;;;;;;;;5041741;27;96855;-77
2023/03/01 12:24:43;;;;;;;4.80;1.55;;;;;;;;;;5082240;27;92678;-76
2023/03/01 12:27:32;;;;;;;5.70;1.60;;;;;;;;;;5077570;27;95271;-76
2023/03/01 12:30:17;;;;;;;3.55;1.20;;;;;;;;;;5079689;27;92334;-76
2023/03/01 12:32:55;;;;;;;4.68;1.40;;;;;;;;;;5077737;27;92460;-76
2023/03/01 12:35:33;;;;;;;4.22;1.30;;;;;;;;;;5079329;27;93063;-75
2023/03/01 12:38:05;;;;;;;4.90;1.30;;;;;;;;;;5077307;27;92176;-76
2023/03/01 12:40:32;;;;;;;11.20;1.67;;;;;;;;;;5078762;27;92727;-76
2023/03/01 12:43:16;;;;;;;5.43;1.30;;;;;;;;;;5079850;27;92836;-75
2023/03/01 12:45:42;;;;;;;3.85;1.40;;;;;;;;;;5079420;27;91851;-75
2023/03/01 12:48:22;;;;;;;3.92;1.50;;;;;;;;;;5081584;27;93006;-74
2023/03/01 12:50:50;;;;;;;4.35;1.30;;;;;;;;;;5077042;27;93077;-75
2023/03/01 12:53:31;;;;;;;6.40;1.50;;;;;;;;;;5058088;27;94473;-76
2023/03/01 12:56:00;;;;;;;2.20;1.40;;;;;;;;;;5078302;27;93357;-76
2023/03/01 12:58:30;;;;;;;3.05;1.40;;;;;;;;;;5077241;27;92278;-75
2023/03/01 13:01:33;;;;;;;6.50;1.42;;;;;;;;;;5075370;27;93248;-76
2023/03/01 13:04:12;;;;;;;3.28;1.30;;;;;;;;;;5076823;27;92761;-77
2023/03/01 13:06:54;;;;;;;2.88;1.30;;;;;;;;;;5076885;27;92682;-76
2023/03/01 13:09:43;;;;;;;4.40;1.45;;;;;;;;;;5060780;27;96271;-75
2023/03/01 13:12:28;;;;;;;3.60;1.20;;;;;;;;;;5079664;27;92550;-77
2023/03/01 13:14:55;;;;;;;2.50;1.25;;;;;;;;;;5075749;27;96879;-76
2023/03/01 13:17:32;;;;;;;3.25;1.20;;;;;;;;;;5071826;27;92653;-77
2023/03/01 13:19:58;;;;;;;2.28;1.30;;;;;;;;;;5079330;27;95412;-77
2023/03/01 13:22:27;;;;;;;3.65;1.50;;;;;;;;;;5062656;27;94922;-77
2023/03/01 13:25:01;;;;;;;3.20;1.10;;;;;;;;;;5082407;27;93185;-77
2023/03/01 13:27:29;;;;;;;2.17;1.20;;;;;;;;;;5063653;27;93116;-76
2023/03/01 13:30:06;;;;;;;3.47;1.33;;;;;;;;;;5082776;27;92479;-77
2023/03/01 13:32:33;;;;;;;5.38;1.50;;;;;;;;;;5076510;27;92813;-76
2023/03/01 13:35:10;;;;;;;3.95;1.30;;;;;;;;;;5067970;27;92881;-76
2023/03/01 13:37:37;;;;;;;4.00;1.38;;;;;;;;;;5081756;27;91771;-76
2023/03/01 13:40:04;;;;;;;;;;;;;;;;;;5063881;27;92298;-76
2023/03/01 13:42:38;;;;;;;2.70;1.10;;;;;;;;;;5079588;27;121380;-74
2023/03/01 13:45:24;;;;;;;3.90;1.20;;;;;;;;;;5080233;27;95621;-75
2023/03/01 13:48:14;;;;;;;4.75;1.30;;;;;;;;;;5071278;27;92217;-75
2023/03/01 13:50:48;;;;;;;3.47;1.13;;;;;;;;;;5058776;27;94347;-76
2023/03/01 13:53:19;;;;;;;1.63;1.10;;;;;;;;;;5073005;27;95657;-77
2023/03/01 13:56:00;;;;;;;3.75;1.20;;;;;;;;;;5070283;27;92175;-76
2023/03/01 13:58:35;;;;;;;5.25;1.10;;;;;;;;;;5078746;27;94040;-75
2023/03/01 14:01:08;;;;;;;4.15;1.27;;;;;;;;;;5060385;27;92458;-77
2023/03/01 14:03:41;;;;;;;4.25;1.20;;;;;;;;;;5079028;27;92802;-77
2023/03/01 14:06:11;;;;;;;2.13;1.00;;;;;;;;;;5064218;27;93409;-77
2023/03/01 14:08:44;;;;;;;2.80;1.00;;;;;;;;;;5079586;27;92210;-77
2023/03/01 14:11:29;;;;;;;4.97;1.27;;;;;;;;;;5075172;27;94870;-76
2023/03/01 14:13:55;;;;;;;4.30;1.20;;;;;;;;;;5070728;27;92682;-76
2023/03/01 14:16:25;;;;;;;3.05;1.20;;;;;;;;;;5078977;27;94120;-75
2023/03/01 14:18:57;;;;;;;1.77;1.05;;;;;;;;;;5047237;27;93158;-77
2023/03/01 14:21:25;;;;;;;2.53;1.20;;;;;;;;;;5077041;27;92611;-76
2023/03/01 14:23:52;;;;;;;3.65;1.20;;;;;;;;;;5078792;27;92480;-77
2023/03/01 14:26:22;;;;;;;2.72;1.20;;;;;;;;;;5079533;27;94140;-76
2023/03/01 14:28:49;;;;;;;2.47;1.20;;;;;;;;;;5072503;27;92263;-76
2023/03/01 14:31:42;;;;;;;2.53;1.20;;;;;;;;;;5064521;27;92472;-76
2023/03/01 14:34:19;;;;;;;2.80;1.10;;;;;;;;;;5076797;27;93026;-75
2023/03/01 14:36:46;;;;;;;3.53;1.40;;;;;;;;;;5074203;27;94937;-76
2023/03/01 14:39:16;;;;;;;4.90;1.42;;;;;;;;;;5076918;27;95347;-76
2023/03/01 14:41:43;;;;;;;3.47;1.20;;;;;;;;;;5080932;27;93216;-76
2023/03/01 14:44:16;;;;;;;4.18;1.30;;;;;;;;;;5075903;27;93594;-76
2023/03/01 14:46:44;;;;;;;4.03;1.40;;;;;;;;;;5079412;27;92681;-76
2023/03/01 14:49:16;;;;;;;3.97;1.25;;;;;;;;;;5078381;27;93652;-75
2023/03/01 14:51:48;;;;;;;3.38;1.40;;;;;;;;;;5076710;27;92821;-75
2023/03/01 14:54:37;;;;;;;2.65;1.20;;;;;;;;;;5077573;27;91945;-76
2023/03/01 14:57:04;;;;;;;2.08;1.17;;;;;;;;;;5064950;27;92804;-76
2023/03/01 14:59:32;;;;;;;3.60;1.10;;;;;;;;;;5058628;27;95058;-77
2023/03/01 15:02:00;;;;;;;5.35;1.38;;;;;;;;;;5074580;27;95142;-75
2023/03/01 15:04:27;;;;;;;3.15;1.40;;;;;;;;;;5077358;27;93581;-75